San Francisco, California
Traffic Map
Current Weather Conditions
San Francisco, California
Few Clouds
Few Clouds
21°
Feels Like: 21°
Wind Chill: 21° Ceiling: Unl
Heat Index: 21° Visibility: 10mi
Dew Point: 14° Wind: 8mph
Humidity: 68% Direction: 30° (NNE)
Pressure: 29.95in Gusts: 0mph
Raw Report DataKSFO 231856Z 03007KT 10SM FEW018 21/14 A2995 RMK AO2 SLP140 T02060144 $
Traffic Incident Summary
Active as of:
Severity:
Category:
InformationThere was an issue retrieving the traffic information for this location. Please try a different location or try again shortly.
Advertisements
Track Severe Weather on mobile